Herborn, Illinois
Current Conditions -  °F | °C
As of 1:53 PM on Saturday 20 Dec 2014 (Local Time) from KMTO Reporting Station
Overcast Overcast  
Wind Chill: 31°   Ceiling: 6000
Heat Index: 35°   Visibility: 10mi
Dew Point: 25°   Wind: 5mph
Humidity: 67%   Direction: 150°SSE
Pressure: 30.23"   Gusts: NA
Location:  39.3879°N, 88.6432°W
Report Text: KMTO 201953Z AUTO 15004KT 10SM OVC060 02/M04 A3023 RMK AO2 SLP245 T00171039
Loading
Personal Weather Stations






























Interactive Weather Map New forecast layout! Learn more

10-Day Weather Forecast

Advertisements
Track Severe Weather on mobile